createdAt,value
2018-02-17T01:00:21.514Z,48.20
2018-02-17T01:10:10.333Z,50.12
2018-02-17T01:12:38.179Z,49.03
2018-02-17T02:21:21.501Z,51.83
2018-02-17T02:23:49.293Z,43.47
2018-02-17T02:26:17.084Z,43.73
2018-02-17T02:46:55.776Z,48.13
2018-02-17T02:49:23.602Z,51.27
2018-02-17T02:51:53.487Z,52.80
2018-02-17T02:54:21.285Z,50.23
2018-02-17T02:56:49.081Z,54.33
2018-02-17T02:59:31.493Z,41.80
2018-02-17T03:01:59.301Z,39.40
2018-02-17T03:04:32.122Z,36.80
2018-02-17T03:06:59.945Z,43.37
2018-02-17T03:09:31.630Z,37.20
2018-02-17T03:11:59.489Z,40.73
2018-02-17T03:14:27.294Z,40.17
2018-02-17T03:16:55.089Z,31.77
2018-02-17T03:19:27.718Z,34.53
2018-02-17T03:21:55.544Z,30.10
2018-02-17T03:24:23.461Z,31.03
2018-02-17T03:26:51.265Z,33.10
2018-02-17T03:29:19.045Z,27.60
2018-02-17T03:31:46.838Z,29.50
2018-02-17T03:34:14.621Z,29.13
2018-02-17T03:36:42.416Z,27.73
2018-02-17T03:39:10.287Z,27.03
2018-02-17T03:41:38.101Z,28.43
2018-02-17T03:44:05.908Z,27.53
2018-02-17T03:46:33.685Z,27.97
2018-02-17T03:49:01.484Z,25.13
2018-02-17T03:51:29.312Z,28.63
2018-02-17T03:53:58.038Z,27.43
2018-02-17T03:56:25.868Z,26.57
2018-02-17T03:58:53.650Z,22.27
2018-02-17T04:01:21.439Z,27.67
2018-02-17T04:03:49.257Z,23.03
2018-02-17T04:06:17.186Z,29.67
2018-02-17T04:08:45.944Z,21.20
2018-02-17T04:11:13.745Z,24.80
2018-02-17T04:13:42.354Z,25.70
2018-02-17T04:16:10.250Z,24.63
2018-02-17T05:03:58.782Z,26.30
2018-02-17T05:13:03.240Z,19.40
2018-02-17T05:29:58.928Z,16.63
2018-02-17T05:32:41.615Z,19.30
2018-02-17T05:35:19.409Z,20.23
2018-02-17T05:57:51.363Z,14.37
2018-02-17T06:00:19.429Z,15.77
2018-02-17T06:02:47.377Z,18.90
2018-02-17T06:05:15.218Z,31.20
2018-02-17T06:07:43.310Z,13.93
2018-02-17T06:10:11.118Z,13.30
2018-02-17T06:12:38.902Z,14.10
2018-02-17T06:15:07.441Z,11.13
2018-02-17T06:17:35.245Z,17.03
2018-02-17T06:20:03.031Z,15.57
2018-02-17T06:22:30.879Z,26.00
2018-02-17T06:24:58.660Z,14.10
2018-02-17T06:27:26.449Z,13.77
2018-02-17T06:29:54.244Z,15.40
2018-02-17T06:32:22.039Z,18.23
2018-02-17T06:34:49.853Z,22.67
2018-02-17T06:37:18.480Z,17.67
2018-02-17T06:39:46.266Z,17.23
2018-02-17T06:42:14.067Z,15.60
2018-02-17T06:44:42.772Z,25.87
2018-02-17T06:47:10.562Z,15.73
2018-02-17T06:49:38.341Z,17.33
2018-02-17T06:52:06.906Z,20.33
2018-02-17T06:54:34.694Z,19.90
2018-02-17T06:57:02.491Z,18.67
2018-02-17T06:59:30.349Z,23.27
2018-02-17T07:01:58.293Z,18.93
2018-02-17T07:04:26.859Z,15.53
2018-02-17T07:06:55.458Z,27.13
2018-02-17T07:09:23.275Z,17.60
2018-02-17T07:11:51.059Z,21.80
2018-02-17T07:14:19.615Z,26.10
2018-02-17T07:16:49.231Z,19.03
2018-02-17T07:19:17.891Z,18.60
2018-02-17T07:21:45.742Z,17.50
2018-02-17T07:24:13.671Z,25.53
2018-02-17T07:26:41.536Z,20.10
2018-02-17T07:29:10.850Z,24.95
2018-02-17T07:31:38.665Z,46.23
2018-02-17T07:34:07.537Z,27.87
2018-02-17T07:36:35.390Z,26.00
2018-02-17T07:39:03.305Z,17.33
2018-02-17T07:41:31.947Z,19.33
2018-02-17T07:43:59.730Z,14.83
2018-02-17T07:46:28.366Z,13.10
2018-02-17T07:48:59.514Z,26.33
2018-02-17T07:51:27.787Z,17.50
2018-02-17T07:53:55.851Z,13.07
2018-02-17T07:56:25.355Z,15.37
2018-02-17T07:58:56.287Z,14.27
2018-02-17T08:01:24.879Z,26.20
2018-02-17T08:03:54.991Z,20.47
2018-02-17T08:06:24.862Z,26.13
2018-02-17T08:17:11.642Z,18.58
2018-02-17T10:09:11.893Z,28.80
2018-02-17T10:11:39.763Z,31.13
2018-02-17T10:14:07.546Z,27.10
2018-02-17T10:16:35.342Z,23.50
2018-02-17T10:19:18.663Z,21.20
2018-02-17T10:22:17.171Z,22.10
2018-02-17T10:24:45.272Z,26.83
2018-02-17T10:27:13.079Z,38.07
2018-02-17T10:29:40.925Z,27.53
2018-02-17T10:32:08.729Z,23.57
2018-02-17T10:34:36.519Z,31.90
2018-02-17T10:37:04.294Z,29.33
2018-02-17T10:39:32.888Z,32.97
2018-02-17T10:42:01.439Z,25.80
2018-02-17T10:44:29.240Z,20.10
2018-02-17T10:46:57.929Z,25.50
2018-02-17T10:49:26.494Z,21.00
2018-02-17T10:51:54.274Z,26.13
2018-02-17T10:54:22.096Z,26.33
2018-02-17T10:56:49.898Z,27.50
2018-02-17T10:59:17.674Z,22.40
2018-02-17T11:01:45.445Z,25.03
2018-02-17T11:04:13.234Z,22.73
2018-02-17T11:06:41.032Z,26.27
2018-02-17T11:09:08.827Z,23.83
2018-02-17T11:11:36.625Z,23.23
2018-02-17T11:14:04.449Z,19.37
2018-02-17T11:16:32.999Z,22.93
2018-02-17T11:19:00.857Z,23.97
2018-02-17T11:21:28.674Z,26.73
2018-02-17T11:23:56.470Z,26.23
2018-02-17T11:26:24.250Z,24.13
2018-02-17T11:28:52.025Z,24.60
2018-02-17T11:31:19.814Z,29.73
2018-02-17T11:33:48.392Z,31.03
2018-02-17T11:36:16.177Z,30.87
2018-02-17T11:38:44.733Z,24.00
2018-02-17T11:41:12.557Z,31.77
2018-02-17T11:43:40.371Z,29.30
2018-02-17T11:46:08.181Z,25.40
2018-02-17T11:48:36.026Z,35.73
2018-02-17T11:51:03.880Z,30.20
2018-02-17T11:53:31.811Z,36.10
2018-02-17T11:55:59.685Z,27.70
2018-02-17T11:58:27.483Z,29.70
2018-02-17T12:00:56.037Z,35.17
2018-02-17T12:03:23.884Z,33.83
2018-02-17T12:05:51.686Z,28.53
2018-02-17T12:08:20.250Z,25.30
2018-02-17T12:10:48.021Z,32.10
2018-02-17T12:13:15.805Z,25.63
2018-02-17T12:15:43.634Z,29.83
2018-02-17T12:18:11.553Z,28.57
2018-02-17T12:20:39.484Z,32.23
2018-02-17T12:23:07.295Z,32.93
2018-02-17T12:25:35.110Z,36.40
2018-02-17T12:28:02.928Z,30.90
2018-02-17T12:30:30.742Z,35.33
2018-02-17T12:32:58.529Z,29.33
2018-02-17T12:35:26.453Z,35.40
2018-02-17T12:37:54.303Z,35.70
2018-02-17T12:40:22.090Z,30.53
2018-02-17T12:42:50.101Z,73.87
2018-02-17T12:45:18.818Z,41.00
2018-02-17T12:47:46.607Z,34.63
2018-02-17T12:50:14.434Z,32.40
2018-02-17T12:52:42.251Z,32.60
2018-02-17T12:55:10.039Z,39.40
2018-02-17T12:57:38.587Z,36.00
2018-02-17T13:00:06.368Z,47.93
2018-02-17T13:02:34.182Z,35.23
2018-02-17T13:05:01.967Z,42.30
2018-02-17T13:07:30.058Z,36.70
2018-02-17T13:09:57.878Z,33.90
2018-02-17T13:12:25.762Z,34.63
2018-02-17T13:14:53.558Z,29.37
2018-02-17T13:17:21.374Z,36.60
2018-02-17T13:19:49.203Z,36.97
2018-02-17T13:22:17.783Z,39.17
2018-02-17T13:24:45.628Z,32.83
2018-02-17T13:27:13.423Z,34.63
2018-02-17T13:29:42.046Z,36.90
2018-02-17T13:32:09.845Z,38.00
2018-02-17T13:34:37.670Z,35.63
2018-02-17T13:37:05.514Z,38.23
2018-02-17T13:39:33.350Z,32.87
2018-02-17T13:42:01.389Z,31.80
2018-02-17T13:44:29.195Z,41.33
2018-02-17T13:46:57.076Z,34.77
2018-02-17T13:49:25.849Z,42.17
2018-02-17T13:51:53.787Z,31.83
2018-02-17T13:54:21.586Z,31.20
2018-02-17T13:56:49.390Z,37.50
2018-02-17T13:59:17.565Z,39.07
2018-02-17T14:01:51.962Z,47.97
2018-02-17T14:04:20.649Z,42.00
2018-02-17T14:06:48.477Z,33.27
2018-02-17T14:09:16.255Z,32.27
2018-02-17T14:11:44.068Z,36.58
2018-02-17T14:14:14.439Z,32.70
2018-02-17T14:16:42.302Z,39.15
2018-02-17T14:19:10.102Z,34.00
2018-02-17T14:21:37.906Z,34.30
2018-02-17T14:24:05.695Z,36.42
2018-02-17T14:26:33.482Z,32.90
2018-02-17T14:29:02.042Z,38.47
2018-02-17T14:31:29.831Z,38.87
2018-02-17T14:33:59.046Z,34.37
2018-02-17T14:36:27.594Z,33.08
2018-02-17T14:38:55.386Z,32.07
2018-02-17T14:41:23.254Z,31.58
2018-02-17T14:43:51.069Z,36.87
2018-02-17T14:46:19.186Z,35.13
2018-02-17T14:48:47.957Z,32.60
2018-02-17T14:51:16.874Z,39.67
2018-02-17T14:53:45.462Z,34.83
2018-02-17T14:56:14.122Z,36.53
2018-02-17T14:58:42.710Z,34.17
2018-02-17T15:01:11.267Z,37.27
2018-02-17T15:03:39.066Z,46.47
2018-02-17T15:06:06.867Z,34.73
2018-02-17T15:08:34.728Z,35.97
2018-02-17T15:11:02.542Z,35.97
2018-02-17T15:13:31.088Z,37.57
2018-02-17T15:15:58.869Z,38.10
2018-02-17T15:18:26.669Z,38.10
2018-02-17T15:20:55.210Z,37.30
2018-02-17T15:23:23.003Z,36.40
2018-02-17T15:25:51.596Z,35.67
2018-02-17T15:28:20.165Z,36.77
2018-02-17T15:30:50.049Z,34.03
2018-02-17T15:33:17.845Z,38.17
2018-02-17T15:35:48.075Z,31.37
2018-02-17T15:38:16.698Z,39.13
2018-02-17T15:40:44.475Z,35.13
2018-02-17T15:43:12.254Z,34.60
2018-02-17T15:45:40.037Z,36.70
2018-02-17T15:48:07.833Z,36.50
2018-02-17T15:50:35.762Z,35.37
2018-02-17T15:53:03.716Z,35.80
2018-02-17T15:55:31.635Z,42.97
2018-02-17T15:57:59.436Z,38.77
2018-02-17T16:00:27.251Z,39.63
2018-02-17T16:02:57.548Z,37.27
2018-02-17T16:05:25.750Z,47.67
2018-02-17T16:17:24.250Z,34.10
2018-02-17T16:22:39.861Z,35.87
2018-02-17T16:25:07.774Z,37.87
2018-02-17T16:36:49.977Z,40.17
2018-02-17T16:39:17.791Z,38.33
2018-02-17T16:41:46.329Z,34.13
2018-02-17T16:44:14.180Z,34.90
2018-02-17T16:46:41.979Z,41.90
2018-02-17T16:49:11.179Z,39.43
2018-02-17T16:51:39.739Z,46.17
2018-02-17T16:54:07.507Z,38.50
2018-02-17T16:56:35.328Z,41.17
2018-02-17T16:59:03.112Z,36.13
2018-02-17T17:01:30.892Z,36.83
2018-02-17T17:03:58.859Z,37.73
2018-02-17T17:06:26.740Z,40.07
2018-02-17T17:08:54.626Z,34.60
2018-02-17T17:11:23.281Z,36.93
2018-02-17T17:13:51.175Z,34.10
2018-02-17T17:16:19.850Z,40.20
2018-02-17T17:18:47.651Z,41.07
2018-02-17T17:21:15.444Z,36.27
2018-02-17T17:23:43.532Z,39.40
2018-02-17T17:26:12.343Z,41.60
2018-02-17T17:28:40.246Z,44.13
2018-02-17T17:31:09.694Z,47.03
2018-02-17T17:33:37.578Z,35.53
2018-02-17T17:36:05.422Z,36.80
2018-02-17T17:38:33.338Z,42.50
2018-02-17T17:41:01.227Z,41.70
2018-02-17T17:43:29.057Z,44.40
2018-02-17T17:45:56.870Z,35.83
2018-02-17T17:48:24.995Z,36.70
2018-02-17T17:50:53.606Z,44.67
2018-02-17T17:53:21.776Z,44.20
2018-02-17T17:55:49.566Z,41.73
2018-02-17T17:58:17.472Z,37.23
2018-02-17T18:00:46.061Z,38.07
2018-02-17T18:03:13.902Z,44.70
2018-02-17T18:08:36.331Z,37.80
2018-02-17T18:19:39.004Z,34.77
2018-02-17T18:22:26.172Z,35.63
2018-02-17T18:30:26.979Z,49.07
2018-02-17T18:32:54.867Z,40.23
2018-02-17T18:35:23.202Z,41.13
2018-02-17T18:37:50.986Z,41.67
2018-02-17T18:40:18.811Z,34.73
2018-02-17T18:42:47.390Z,40.87
2018-02-17T18:45:15.874Z,49.07
2018-02-17T18:47:44.590Z,37.73
2018-02-17T18:50:12.599Z,38.00
2018-02-17T18:52:40.391Z,40.17
2018-02-17T18:55:08.168Z,42.07
2018-02-17T18:57:36.407Z,46.00
2018-02-17T19:00:05.241Z,40.50
2018-02-17T19:02:33.808Z,40.70
2018-02-17T19:05:02.042Z,41.85
2018-02-17T19:07:30.367Z,38.00
2018-02-17T19:09:59.618Z,37.50
2018-02-17T19:12:27.485Z,40.77
2018-02-17T19:14:55.320Z,43.97
2018-02-17T19:17:26.655Z,51.40
2018-02-17T19:19:54.442Z,46.47
2018-02-17T19:22:22.945Z,51.20
2018-02-17T19:24:51.503Z,64.53
2018-02-17T19:27:19.299Z,44.70
2018-02-17T19:29:47.171Z,51.07
2018-02-17T19:32:15.834Z,53.03
2018-02-17T19:34:43.622Z,57.63
2018-02-17T19:37:12.170Z,56.97
2018-02-17T19:39:39.959Z,58.30
2018-02-17T19:42:08.518Z,64.13
2018-02-17T19:44:38.175Z,56.83
2018-02-17T19:47:06.053Z,68.87
2018-02-17T19:49:33.863Z,53.77
2018-02-17T19:52:01.655Z,64.03
2018-02-17T19:58:41.850Z,58.47
2018-02-17T20:13:01.527Z,57.70
2018-02-17T20:15:47.559Z,54.63
2018-02-17T20:18:24.509Z,63.93
2018-02-17T20:20:52.816Z,68.80
2018-02-17T20:23:43.471Z,55.80
2018-02-17T20:29:16.303Z,61.33
2018-02-17T21:36:11.115Z,53.97
2018-02-17T21:38:51.507Z,60.27
2018-02-17T21:41:25.370Z,55.00
2018-02-17T21:44:02.160Z,59.40
2018-02-17T21:46:39.080Z,63.93
2018-02-17T21:52:21.110Z,59.70
2018-02-17T21:55:01.637Z,54.53
2018-02-17T21:57:36.738Z,56.93
2018-02-17T22:00:33.198Z,50.43
2018-02-17T22:29:45.409Z,49.73
2018-02-17T22:32:14.024Z,56.47
2018-02-17T22:34:42.804Z,58.53
2018-02-17T22:37:10.750Z,55.90
2018-02-17T22:39:40.868Z,51.90
2018-02-17T22:42:11.804Z,58.10
2018-02-17T22:44:40.456Z,61.90
2018-02-17T22:47:08.318Z,60.37
2018-02-17T22:49:36.367Z,70.17
2018-02-17T22:52:04.359Z,56.67
2018-02-17T22:54:34.220Z,59.53
2018-02-17T22:57:03.789Z,59.23
2018-02-17T23:00:12.607Z,59.60
2018-02-17T23:22:41.137Z,77.80
2018-02-17T23:57:00.377Z,56.53
